QFA45 YSSY-YBNA
Flight info
| Callsign | QFA45 |
|---|---|
| Flight time | 1h 8m |
| Altitude | 37000 |
| Route | DCT TESAT H252 OLSEM Y193 BNA DCT |
| Aircraft | B737/M-V/N |
Departure
| Time | 2026-05-07 03:34 |
|---|---|
| Airport | Sydney Kingsford Smith International Airport (YSSY) |
Arrival
| Time | 2026-05-07 04:42 |
|---|---|
| Airport | Ballina Byron Gateway Airport (YBNA) |
| Time | Latitude | Longitude | Altitude | Speed | Heading |
|---|---|---|---|---|---|
| 2026-05-07 02:57 | -33.93661 | 151.17869 | 32 ft | 0 kts | 88° |
| 2026-05-07 03:09 | -33.93662 | 151.17862 | 31 ft | 2 kts | 88° |
| 2026-05-07 03:09 | -33.93662 | 151.17843 | 31 ft | 3 kts | 88° |
| 2026-05-07 03:09 | -33.93661 | 151.17822 | 31 ft | 2 kts | 119° |
| 2026-05-07 03:10 | -33.93652 | 151.17810 | 31 ft | 1 kts | 176° |
| 2026-05-07 03:10 | -33.93651 | 151.17810 | 27 ft | 0 kts | 181° |
| 2026-05-07 03:14 | -33.93652 | 151.17810 | 31 ft | 1 kts | 181° |
| 2026-05-07 03:14 | -33.93677 | 151.17807 | 31 ft | 7 kts | 187° |
| 2026-05-07 03:14 | -33.93877 | 151.17773 | 23 ft | 20 kts | 174° |
| 2026-05-07 03:15 | -33.94009 | 151.17810 | 25 ft | 20 kts | 166° |
| 2026-05-07 03:15 | -33.94145 | 151.17843 | 26 ft | 20 kts | 168° |
| 2026-05-07 03:15 | -33.94282 | 151.17879 | 27 ft | 20 kts | 167° |
| 2026-05-07 03:15 | -33.94425 | 151.17912 | 27 ft | 21 kts | 179° |
| 2026-05-07 03:16 | -33.94546 | 151.17891 | 24 ft | 4 kts | 158° |
| 2026-05-07 03:16 | -33.94558 | 151.17898 | 23 ft | 1 kts | 153° |
| 2026-05-07 03:16 | -33.94552 | 151.17894 | 25 ft | 2 kts | 154° |
| 2026-05-07 03:16 | -33.94537 | 151.17886 | 26 ft | 2 kts | 153° |
| 2026-05-07 03:17 | -33.94534 | 151.17884 | 25 ft | 0 kts | 165° |
| 2026-05-07 03:17 | -33.94541 | 151.17881 | 25 ft | 2 kts | 202° |
| 2026-05-07 03:18 | -33.93661 | 151.17869 | 31 ft | 23 kts | 88° |
| 2026-05-07 03:19 | -33.93662 | 151.17860 | 32 ft | 2 kts | 88° |
| 2026-05-07 03:20 | -33.93662 | 151.17843 | 32 ft | 2 kts | 88° |
| 2026-05-07 03:20 | -33.93663 | 151.17827 | 31 ft | 2 kts | 89° |
| 2026-05-07 03:20 | -33.93661 | 151.17812 | 31 ft | 2 kts | 126° |
| 2026-05-07 03:20 | -33.93657 | 151.17805 | 31 ft | 0 kts | 173° |
| 2026-05-07 03:21 | -33.93656 | 151.17805 | 31 ft | 0 kts | 175° |
| 2026-05-07 03:23 | -33.93670 | 151.17806 | 31 ft | 5 kts | 180° |
| 2026-05-07 03:23 | -33.93721 | 151.17796 | 31 ft | 11 kts | 190° |
| 2026-05-07 03:23 | -33.93825 | 151.17772 | 22 ft | 16 kts | 204° |
| 2026-05-07 03:24 | -33.93870 | 151.17664 | 21 ft | 14 kts | 252° |
| 2026-05-07 03:24 | -33.93942 | 151.17620 | 20 ft | 13 kts | 169° |
| 2026-05-07 03:24 | -33.94041 | 151.17646 | 24 ft | 16 kts | 168° |
| 2026-05-07 03:24 | -33.94159 | 151.17683 | 24 ft | 21 kts | 165° |
| 2026-05-07 03:25 | -33.94199 | 151.17695 | 24 ft | 22 kts | 165° |
| 2026-05-07 03:25 | -33.94362 | 151.17744 | 24 ft | 26 kts | 166° |
| 2026-05-07 03:25 | -33.94541 | 151.17800 | 25 ft | 26 kts | 167° |
| 2026-05-07 03:25 | -33.94711 | 151.17843 | 22 ft | 27 kts | 168° |
| 2026-05-07 03:26 | -33.94899 | 151.17892 | 25 ft | 28 kts | 168° |
| 2026-05-07 03:26 | -33.95066 | 151.17936 | 26 ft | 17 kts | 166° |
| 2026-05-07 03:26 | -33.95115 | 151.18041 | 27 ft | 17 kts | 78° |
| 2026-05-07 03:26 | -33.95087 | 151.18192 | 29 ft | 20 kts | 77° |
| 2026-05-07 03:27 | -33.95054 | 151.18369 | 27 ft | 22 kts | 77° |
| 2026-05-07 03:27 | -33.95045 | 151.18461 | 27 ft | 8 kts | 97° |
| 2026-05-07 03:27 | -33.95059 | 151.18503 | 28 ft | 0 kts | 127° |
| 2026-05-07 03:28 | -33.95060 | 151.18504 | 28 ft | 1 kts | 128° |
| 2026-05-07 03:28 | -33.95084 | 151.18521 | 28 ft | 9 kts | 153° |
| 2026-05-07 03:28 | -33.95170 | 151.18600 | 27 ft | 21 kts | 138° |
| 2026-05-07 03:29 | -33.95316 | 151.18721 | 26 ft | 30 kts | 163° |
| 2026-05-07 03:29 | -33.95538 | 151.18778 | 27 ft | 34 kts | 168° |
| 2026-05-07 03:29 | -33.95765 | 151.18838 | 27 ft | 33 kts | 167° |
| 2026-05-07 03:29 | -33.95987 | 151.18896 | 28 ft | 32 kts | 168° |
| 2026-05-07 03:30 | -33.96205 | 151.18952 | 27 ft | 31 kts | 168° |
| 2026-05-07 03:30 | -33.96418 | 151.19007 | 25 ft | 32 kts | 167° |
| 2026-05-07 03:30 | -33.96637 | 151.19065 | 20 ft | 32 kts | 168° |
| 2026-05-07 03:30 | -33.96848 | 151.19075 | 20 ft | 29 kts | 171° |
| 2026-05-07 03:31 | -33.97042 | 151.19125 | 22 ft | 27 kts | 168° |
| 2026-05-07 03:31 | -33.97130 | 151.19217 | 26 ft | 16 kts | 83° |
| 2026-05-07 03:31 | -33.97120 | 151.19273 | 23 ft | 0 kts | 76° |
| 2026-05-07 03:32 | -33.97118 | 151.19286 | 23 ft | 5 kts | 76° |
| 2026-05-07 03:32 | -33.97090 | 151.19351 | 25 ft | 13 kts | 43° |
| 2026-05-07 03:32 | -33.96992 | 151.19358 | 21 ft | 11 kts | 348° |
| 2026-05-07 03:32 | -33.96982 | 151.19356 | 21 ft | 0 kts | 348° |
| 2026-05-07 03:33 | -33.96981 | 151.19356 | 21 ft | 1 kts | 348° |
| 2026-05-07 03:33 | -33.96907 | 151.19336 | 21 ft | 31 kts | 347° |
| 2026-05-07 03:33 | -33.96449 | 151.19216 | 25 ft | 101 kts | 348° |
| 2026-05-07 03:33 | -33.95592 | 151.18990 | 52 ft | 150 kts | 346° |
| 2026-05-07 03:34 | -33.94562 | 151.18766 | 698 ft | 156 kts | 345° |
| 2026-05-07 03:34 | -33.93429 | 151.19100 | 1268 ft | 185 kts | 25° |
| 2026-05-07 03:34 | -33.92343 | 151.20034 | 1731 ft | 199 kts | 37° |
| 2026-05-07 03:34 | -33.91296 | 151.21120 | 2169 ft | 199 kts | 36° |
| 2026-05-07 03:35 | -33.90134 | 151.21989 | 2593 ft | 194 kts | 20° |
| 2026-05-07 03:35 | -33.88955 | 151.22804 | 3040 ft | 199 kts | 30° |
| 2026-05-07 03:35 | -33.87823 | 151.23810 | 3490 ft | 204 kts | 31° |
| 2026-05-07 03:35 | -33.86857 | 151.24658 | 3862 ft | 214 kts | 29° |
| 2026-05-07 03:36 | -33.85607 | 151.25636 | 4387 ft | 228 kts | 26° |
| 2026-05-07 03:36 | -33.84250 | 151.26746 | 4940 ft | 246 kts | 43° |
| 2026-05-07 03:36 | -33.83385 | 151.28576 | 5518 ft | 261 kts | 72° |
| 2026-05-07 03:37 | -33.82844 | 151.30717 | 6095 ft | 274 kts | 78° |
| 2026-05-07 03:37 | -33.82345 | 151.32986 | 6645 ft | 288 kts | 77° |
| 2026-05-07 03:37 | -33.81459 | 151.35190 | 7238 ft | 298 kts | 51° |
| 2026-05-07 03:37 | -33.80163 | 151.37180 | 7919 ft | 306 kts | 48° |
| 2026-05-07 03:38 | -33.78803 | 151.39185 | 8601 ft | 313 kts | 48° |
| 2026-05-07 03:38 | -33.77432 | 151.41256 | 9298 ft | 320 kts | 49° |
| 2026-05-07 03:38 | -33.76048 | 151.43388 | 9986 ft | 323 kts | 49° |
| 2026-05-07 03:38 | -33.74671 | 151.45495 | 10600 ft | 326 kts | 48° |
| 2026-05-07 03:39 | -33.73261 | 151.47634 | 11213 ft | 327 kts | 47° |
| 2026-05-07 03:39 | -33.71843 | 151.49782 | 11864 ft | 328 kts | 45° |
| 2026-05-07 03:39 | -33.70427 | 151.51937 | 12528 ft | 329 kts | 44° |
| 2026-05-07 03:39 | -33.69006 | 151.54099 | 13192 ft | 331 kts | 43° |
| 2026-05-07 03:40 | -33.67576 | 151.56268 | 13868 ft | 332 kts | 42° |
| 2026-05-07 03:40 | -33.66133 | 151.58454 | 14469 ft | 335 kts | 41° |
| 2026-05-07 03:40 | -33.64607 | 151.60552 | 15083 ft | 327 kts | 28° |
| 2026-05-07 03:40 | -33.62793 | 151.62097 | 15728 ft | 319 kts | 19° |
| 2026-05-07 03:41 | -33.60945 | 151.63537 | 16357 ft | 321 kts | 18° |
| 2026-05-07 03:41 | -33.59063 | 151.64996 | 17018 ft | 324 kts | 18° |
| 2026-05-07 03:41 | -33.57169 | 151.66487 | 17691 ft | 326 kts | 17° |
| 2026-05-07 03:41 | -33.55269 | 151.67988 | 18362 ft | 328 kts | 17° |
| 2026-05-07 03:42 | -33.53352 | 151.69494 | 18858 ft | 330 kts | 15° |
| 2026-05-07 03:42 | -33.51426 | 151.71002 | 19447 ft | 331 kts | 15° |
| 2026-05-07 03:42 | -33.49465 | 151.72355 | 20054 ft | 316 kts | 6° |
| 2026-05-07 03:42 | -33.47448 | 151.73210 | 20679 ft | 299 kts | 357° |
| 2026-05-07 03:43 | -33.45440 | 151.73850 | 21302 ft | 298 kts | 357° |
| 2026-05-07 03:43 | -33.43466 | 151.74491 | 21927 ft | 298 kts | 357° |
| 2026-05-07 03:43 | -33.41470 | 151.75143 | 22576 ft | 296 kts | 357° |
| 2026-05-07 03:43 | -33.39494 | 151.75785 | 23235 ft | 293 kts | 356° |
| 2026-05-07 03:44 | -33.37537 | 151.76418 | 23847 ft | 290 kts | 356° |
| 2026-05-07 03:44 | -33.35605 | 151.77043 | 24403 ft | 286 kts | 356° |
| 2026-05-07 03:44 | -33.33698 | 151.77660 | 24889 ft | 281 kts | 356° |
| 2026-05-07 03:44 | -33.31824 | 151.78267 | 25458 ft | 276 kts | 355° |
| 2026-05-07 03:45 | -33.29988 | 151.78862 | 26035 ft | 270 kts | 355° |
| 2026-05-07 03:45 | -33.28196 | 151.79442 | 26628 ft | 263 kts | 354° |
| 2026-05-07 03:45 | -33.26456 | 151.80006 | 27214 ft | 255 kts | 353° |
| 2026-05-07 03:45 | -33.24774 | 151.80551 | 27812 ft | 246 kts | 353° |
| 2026-05-07 03:46 | -33.23155 | 151.81075 | 28414 ft | 235 kts | 352° |
| 2026-05-07 03:46 | -33.21619 | 151.81575 | 29019 ft | 222 kts | 351° |
| 2026-05-07 03:46 | -33.20197 | 151.82038 | 29605 ft | 207 kts | 349° |
| 2026-05-07 03:46 | -33.18790 | 151.82470 | 29640 ft | 215 kts | 349° |
| 2026-05-07 03:47 | -33.17290 | 151.82921 | 29633 ft | 228 kts | 351° |
| 2026-05-07 03:47 | -33.15712 | 151.83428 | 29658 ft | 241 kts | 352° |
| 2026-05-07 03:47 | -33.14056 | 151.83970 | 29711 ft | 251 kts | 353° |
| 2026-05-07 03:47 | -33.12352 | 151.84521 | 29771 ft | 262 kts | 354° |
| 2026-05-07 03:48 | -33.10554 | 151.85098 | 29776 ft | 273 kts | 354° |
| 2026-05-07 03:48 | -33.08684 | 151.85698 | 29848 ft | 284 kts | 355° |
| 2026-05-07 03:48 | -33.06737 | 151.86325 | 29956 ft | 293 kts | 355° |
| 2026-05-07 03:48 | -33.04744 | 151.86973 | 30189 ft | 298 kts | 356° |
| 2026-05-07 03:49 | -33.02730 | 151.87625 | 30447 ft | 301 kts | 356° |
| 2026-05-07 03:49 | -33.00718 | 151.88272 | 30728 ft | 303 kts | 356° |
| 2026-05-07 03:49 | -32.98678 | 151.88925 | 31025 ft | 304 kts | 356° |
| 2026-05-07 03:49 | -32.96632 | 151.89582 | 31362 ft | 305 kts | 356° |
| 2026-05-07 03:50 | -32.94586 | 151.90239 | 31693 ft | 304 kts | 356° |
| 2026-05-07 03:50 | -32.92541 | 151.90894 | 32036 ft | 304 kts | 356° |
| 2026-05-07 03:50 | -32.90494 | 151.91549 | 32385 ft | 304 kts | 356° |
| 2026-05-07 03:50 | -32.88450 | 151.92203 | 32673 ft | 302 kts | 356° |
| 2026-05-07 03:51 | -32.86424 | 151.92852 | 33042 ft | 301 kts | 356° |
| 2026-05-07 03:51 | -32.84436 | 151.93488 | 33410 ft | 299 kts | 356° |
| 2026-05-07 03:51 | -32.82432 | 151.94129 | 33802 ft | 296 kts | 356° |
| 2026-05-07 03:51 | -32.80451 | 151.94761 | 34145 ft | 294 kts | 356° |
| 2026-05-07 03:52 | -32.78477 | 151.95390 | 34456 ft | 292 kts | 356° |
| 2026-05-07 03:52 | -32.76513 | 151.96016 | 34739 ft | 292 kts | 356° |
| 2026-05-07 03:52 | -32.74557 | 151.96639 | 35007 ft | 291 kts | 355° |
| 2026-05-07 03:52 | -32.72604 | 151.97261 | 35270 ft | 290 kts | 355° |
| 2026-05-07 03:53 | -32.70651 | 151.97882 | 35509 ft | 290 kts | 355° |
| 2026-05-07 03:53 | -32.68697 | 151.98504 | 35734 ft | 291 kts | 355° |
| 2026-05-07 03:53 | -32.66740 | 151.99126 | 35928 ft | 292 kts | 355° |
| 2026-05-07 03:53 | -32.64751 | 151.99753 | 36023 ft | 298 kts | 356° |
| 2026-05-07 03:54 | -32.62715 | 152.00394 | 36035 ft | 307 kts | 356° |
| 2026-05-07 03:54 | -32.58486 | 152.01738 | 36045 ft | 326 kts | 358° |
| 2026-05-07 03:55 | -32.53976 | 152.03172 | 36051 ft | 345 kts | 358° |
| 2026-05-07 03:55 | -32.49202 | 152.04685 | 36052 ft | 364 kts | 359° |
| 2026-05-07 03:56 | -32.44184 | 152.06276 | 36047 ft | 381 kts | 359° |
| 2026-05-07 03:56 | -32.38938 | 152.07935 | 36047 ft | 400 kts | 0° |
| 2026-05-07 03:57 | -32.33430 | 152.09676 | 36046 ft | 419 kts | 1° |
| 2026-05-07 03:57 | -32.27688 | 152.11493 | 36043 ft | 431 kts | 1° |
| 2026-05-07 03:58 | -32.21935 | 152.13314 | 36030 ft | 430 kts | 1° |
| 2026-05-07 03:58 | -32.16119 | 152.15138 | 36037 ft | 432 kts | 1° |
| 2026-05-07 03:59 | -32.10299 | 152.16972 | 36079 ft | 434 kts | 1° |
| 2026-05-07 03:59 | -32.07370 | 152.17886 | 36337 ft | 437 kts | 1° |
| 2026-05-07 03:59 | -32.04420 | 152.18810 | 36565 ft | 440 kts | 1° |
| 2026-05-07 03:59 | -32.01456 | 152.19743 | 36804 ft | 443 kts | 1° |
| 2026-05-07 04:00 | -31.98473 | 152.20679 | 37000 ft | 444 kts | 1° |
| 2026-05-07 04:00 | -31.92507 | 152.22550 | 37006 ft | 443 kts | 1° |
| 2026-05-07 04:01 | -31.86555 | 152.24407 | 37006 ft | 443 kts | 1° |
| 2026-05-07 04:01 | -31.80598 | 152.26268 | 37007 ft | 443 kts | 1° |
| 2026-05-07 04:02 | -31.74641 | 152.28125 | 37004 ft | 443 kts | 1° |
| 2026-05-07 04:02 | -31.68682 | 152.29981 | 37000 ft | 442 kts | 1° |
| 2026-05-07 04:03 | -31.62766 | 152.31821 | 37014 ft | 443 kts | 1° |
| 2026-05-07 04:03 | -31.56791 | 152.33677 | 37000 ft | 443 kts | 1° |
| 2026-05-07 04:04 | -31.50837 | 152.35522 | 37001 ft | 442 kts | 1° |
| 2026-05-07 04:04 | -31.44892 | 152.37364 | 37015 ft | 442 kts | 1° |
| 2026-05-07 04:05 | -31.38940 | 152.39205 | 37011 ft | 442 kts | 1° |
| 2026-05-07 04:05 | -31.33010 | 152.41037 | 37002 ft | 442 kts | 1° |
| 2026-05-07 04:06 | -31.27059 | 152.42872 | 37003 ft | 443 kts | 1° |
| 2026-05-07 04:06 | -31.21104 | 152.44709 | 37002 ft | 442 kts | 1° |
| 2026-05-07 04:07 | -31.15164 | 152.46535 | 37005 ft | 442 kts | 1° |
| 2026-05-07 04:07 | -31.09238 | 152.48358 | 36949 ft | 443 kts | 1° |
| 2026-05-07 04:08 | -31.03290 | 152.50183 | 37008 ft | 442 kts | 1° |
| 2026-05-07 04:08 | -30.97342 | 152.52006 | 37008 ft | 442 kts | 1° |
| 2026-05-07 04:09 | -30.91391 | 152.53829 | 37001 ft | 442 kts | 1° |
| 2026-05-07 04:09 | -30.85474 | 152.55636 | 36971 ft | 442 kts | 0° |
| 2026-05-07 04:10 | -30.79521 | 152.57598 | 37002 ft | 456 kts | 7° |
| 2026-05-07 04:10 | -30.73763 | 152.60581 | 37000 ft | 446 kts | 9° |
| 2026-05-07 04:11 | -30.69043 | 152.63014 | 37000 ft | 445 kts | 9° |
| 2026-05-07 04:11 | -30.62457 | 152.66456 | 36937 ft | 446 kts | 9° |
| 2026-05-07 04:12 | -30.57734 | 152.68908 | 36990 ft | 441 kts | 9° |
| 2026-05-07 04:12 | -30.52197 | 152.71786 | 36989 ft | 438 kts | 9° |
| 2026-05-07 04:13 | -30.46641 | 152.74665 | 36988 ft | 437 kts | 9° |
| 2026-05-07 04:13 | -30.41098 | 152.77537 | 36986 ft | 436 kts | 9° |
| 2026-05-07 04:14 | -30.35556 | 152.80406 | 36991 ft | 436 kts | 9° |
| 2026-05-07 04:14 | -30.29994 | 152.83278 | 36974 ft | 438 kts | 9° |
| 2026-05-07 04:15 | -30.24450 | 152.86143 | 36976 ft | 439 kts | 9° |
| 2026-05-07 04:15 | -30.18874 | 152.89016 | 36981 ft | 438 kts | 9° |
| 2026-05-07 04:16 | -30.13306 | 152.91885 | 36979 ft | 438 kts | 8° |
| 2026-05-07 04:16 | -30.07742 | 152.94746 | 36978 ft | 438 kts | 8° |
| 2026-05-07 04:16 | -30.04961 | 152.96175 | 36841 ft | 438 kts | 8° |
| 2026-05-07 04:17 | -30.02175 | 152.97604 | 36401 ft | 437 kts | 9° |
| 2026-05-07 04:17 | -29.99403 | 152.99030 | 35923 ft | 435 kts | 9° |
| 2026-05-07 04:17 | -29.96649 | 153.00444 | 35468 ft | 431 kts | 9° |
| 2026-05-07 04:17 | -29.93936 | 153.01841 | 35128 ft | 424 kts | 8° |
| 2026-05-07 04:18 | -29.91254 | 153.03213 | 34643 ft | 419 kts | 8° |
| 2026-05-07 04:18 | -29.88603 | 153.04565 | 34181 ft | 414 kts | 8° |
| 2026-05-07 04:18 | -29.85983 | 153.05905 | 33669 ft | 409 kts | 9° |
| 2026-05-07 04:18 | -29.83394 | 153.07231 | 33130 ft | 405 kts | 9° |
| 2026-05-07 04:19 | -29.80833 | 153.08541 | 32611 ft | 400 kts | 9° |
| 2026-05-07 04:19 | -29.78342 | 153.09814 | 32097 ft | 394 kts | 10° |
| 2026-05-07 04:19 | -29.75855 | 153.11083 | 31591 ft | 388 kts | 10° |
| 2026-05-07 04:19 | -29.73400 | 153.12334 | 31091 ft | 383 kts | 11° |
| 2026-05-07 04:20 | -29.70976 | 153.13570 | 30571 ft | 380 kts | 10° |
| 2026-05-07 04:20 | -29.68561 | 153.14798 | 30027 ft | 379 kts | 10° |
| 2026-05-07 04:20 | -29.66141 | 153.16026 | 29342 ft | 379 kts | 11° |
| 2026-05-07 04:21 | -29.61306 | 153.18492 | 28014 ft | 378 kts | 11° |
| 2026-05-07 04:21 | -29.58972 | 153.19694 | 27313 ft | 362 kts | 11° |
| 2026-05-07 04:21 | -29.56603 | 153.20876 | 26716 ft | 383 kts | 11° |
| 2026-05-07 04:21 | -29.54155 | 153.22102 | 26127 ft | 384 kts | 12° |
| 2026-05-07 04:22 | -29.51717 | 153.23361 | 25546 ft | 385 kts | 13° |
| 2026-05-07 04:22 | -29.49268 | 153.24616 | 24970 ft | 386 kts | 13° |
| 2026-05-07 04:22 | -29.46833 | 153.25842 | 24371 ft | 389 kts | 13° |
| 2026-05-07 04:22 | -29.44333 | 153.27100 | 23822 ft | 393 kts | 14° |
| 2026-05-07 04:23 | -29.41822 | 153.28377 | 23219 ft | 394 kts | 14° |
| 2026-05-07 04:23 | -29.39325 | 153.29652 | 22563 ft | 390 kts | 14° |
| 2026-05-07 04:23 | -29.36851 | 153.30905 | 21920 ft | 387 kts | 15° |
| 2026-05-07 04:23 | -29.34396 | 153.32142 | 21291 ft | 384 kts | 15° |
| 2026-05-07 04:24 | -29.31963 | 153.33371 | 20678 ft | 381 kts | 15° |
| 2026-05-07 04:24 | -29.29545 | 153.34595 | 20063 ft | 378 kts | 15° |
| 2026-05-07 04:24 | -29.27153 | 153.35804 | 19468 ft | 375 kts | 16° |
| 2026-05-07 04:24 | -29.24808 | 153.36987 | 18872 ft | 372 kts | 17° |
| 2026-05-07 04:25 | -29.22524 | 153.38435 | 18305 ft | 379 kts | 30° |
| 2026-05-07 04:25 | -29.20597 | 153.40525 | 17658 ft | 386 kts | 46° |
| 2026-05-07 04:25 | -29.19178 | 153.43155 | 17027 ft | 391 kts | 62° |
| 2026-05-07 04:25 | -29.18375 | 153.46131 | 16416 ft | 392 kts | 74° |
| 2026-05-07 04:26 | -29.17808 | 153.49167 | 15808 ft | 389 kts | 76° |
| 2026-05-07 04:26 | -29.17278 | 153.52165 | 15291 ft | 379 kts | 76° |
| 2026-05-07 04:26 | -29.16740 | 153.55108 | 14812 ft | 377 kts | 75° |
| 2026-05-07 04:26 | -29.16194 | 153.58008 | 14327 ft | 365 kts | 75° |
| 2026-05-07 04:27 | -29.15675 | 153.60785 | 13843 ft | 349 kts | 75° |
| 2026-05-07 04:27 | -29.15183 | 153.63450 | 13297 ft | 336 kts | 75° |
| 2026-05-07 04:27 | -29.14707 | 153.66020 | 12754 ft | 325 kts | 75° |
| 2026-05-07 04:27 | -29.14242 | 153.68511 | 12214 ft | 316 kts | 75° |
| 2026-05-07 04:28 | -29.13788 | 153.70940 | 11703 ft | 309 kts | 75° |
| 2026-05-07 04:28 | -29.13350 | 153.73289 | 11189 ft | 303 kts | 75° |
| 2026-05-07 04:28 | -29.12914 | 153.75627 | 10710 ft | 298 kts | 73° |
| 2026-05-07 04:28 | -29.12484 | 153.77928 | 10219 ft | 293 kts | 73° |
| 2026-05-07 04:29 | -29.12058 | 153.80198 | 9726 ft | 289 kts | 73° |
| 2026-05-07 04:29 | -29.11638 | 153.82436 | 9203 ft | 286 kts | 73° |
| 2026-05-07 04:29 | -29.11225 | 153.84640 | 8694 ft | 276 kts | 74° |
| 2026-05-07 04:29 | -29.10822 | 153.86786 | 8194 ft | 276 kts | 74° |
| 2026-05-07 04:30 | -29.10421 | 153.88916 | 7793 ft | 275 kts | 74° |
| 2026-05-07 04:30 | -29.10013 | 153.91079 | 7454 ft | 278 kts | 75° |
| 2026-05-07 04:30 | -29.09607 | 153.93239 | 7115 ft | 278 kts | 75° |
| 2026-05-07 04:30 | -29.09195 | 153.95398 | 6763 ft | 276 kts | 73° |
| 2026-05-07 04:31 | -29.08407 | 153.97318 | 6412 ft | 268 kts | 45° |
| 2026-05-07 04:31 | -29.06997 | 153.98612 | 6049 ft | 254 kts | 18° |
| 2026-05-07 04:31 | -29.05342 | 153.99078 | 5686 ft | 239 kts | 354° |
| 2026-05-07 04:31 | -29.03746 | 153.98803 | 5320 ft | 228 kts | 334° |
| 2026-05-07 04:32 | -29.02492 | 153.97836 | 5027 ft | 207 kts | 314° |
| 2026-05-07 04:32 | -29.01501 | 153.96806 | 4968 ft | 179 kts | 311° |
| 2026-05-07 04:32 | -29.00568 | 153.95856 | 4969 ft | 181 kts | 314° |
| 2026-05-07 04:32 | -28.99594 | 153.94955 | 4931 ft | 179 kts | 315° |
| 2026-05-07 04:33 | -28.98602 | 153.94064 | 4903 ft | 187 kts | 315° |
| 2026-05-07 04:33 | -28.97550 | 153.93114 | 4895 ft | 199 kts | 316° |
| 2026-05-07 04:33 | -28.96457 | 153.92134 | 4884 ft | 199 kts | 316° |
| 2026-05-07 04:33 | -28.95350 | 153.91138 | 4880 ft | 211 kts | 316° |
| 2026-05-07 04:34 | -28.94159 | 153.90061 | 4884 ft | 219 kts | 317° |
| 2026-05-07 04:34 | -28.92955 | 153.88983 | 4880 ft | 222 kts | 317° |
| 2026-05-07 04:34 | -28.91740 | 153.87892 | 4836 ft | 221 kts | 317° |
| 2026-05-07 04:34 | -28.90529 | 153.86803 | 4796 ft | 222 kts | 317° |
| 2026-05-07 04:35 | -28.89321 | 153.85717 | 4760 ft | 221 kts | 317° |
| 2026-05-07 04:35 | -28.88111 | 153.84630 | 4709 ft | 221 kts | 317° |
| 2026-05-07 04:35 | -28.86901 | 153.83543 | 4663 ft | 221 kts | 317° |
| 2026-05-07 04:35 | -28.85739 | 153.82502 | 4603 ft | 210 kts | 316° |
| 2026-05-07 04:36 | -28.84584 | 153.81464 | 4542 ft | 212 kts | 316° |
| 2026-05-07 04:36 | -28.83433 | 153.80429 | 4484 ft | 210 kts | 316° |
| 2026-05-07 04:36 | -28.82284 | 153.79398 | 4436 ft | 205 kts | 317° |
| 2026-05-07 04:36 | -28.81212 | 153.78444 | 4368 ft | 188 kts | 316° |
| 2026-05-07 04:37 | -28.80198 | 153.77531 | 4295 ft | 185 kts | 316° |
| 2026-05-07 04:37 | -28.79232 | 153.76593 | 4243 ft | 180 kts | 306° |
| 2026-05-07 04:37 | -28.78679 | 153.75414 | 4175 ft | 158 kts | 283° |
| 2026-05-07 04:37 | -28.78595 | 153.74188 | 4114 ft | 156 kts | 264° |
| 2026-05-07 04:38 | -28.78868 | 153.72960 | 4060 ft | 163 kts | 256° |
| 2026-05-07 04:38 | -28.79167 | 153.71738 | 4001 ft | 158 kts | 256° |
| 2026-05-07 04:38 | -28.79581 | 153.70549 | 3759 ft | 160 kts | 245° |
| 2026-05-07 04:38 | -28.80068 | 153.69502 | 3521 ft | 141 kts | 249° |
| 2026-05-07 04:39 | -28.80363 | 153.68494 | 3103 ft | 125 kts | 257° |
| 2026-05-07 04:39 | -28.80580 | 153.67592 | 2631 ft | 113 kts | 257° |
| 2026-05-07 04:39 | -28.80801 | 153.66727 | 2184 ft | 113 kts | 258° |
| 2026-05-07 04:39 | -28.81000 | 153.65864 | 1898 ft | 112 kts | 258° |
| 2026-05-07 04:40 | -28.81223 | 153.64968 | 1802 ft | 122 kts | 260° |
| 2026-05-07 04:40 | -28.81412 | 153.63995 | 1761 ft | 131 kts | 257° |
| 2026-05-07 04:40 | -28.81656 | 153.63002 | 1585 ft | 126 kts | 256° |
| 2026-05-07 04:40 | -28.81887 | 153.62058 | 1352 ft | 120 kts | 257° |
| 2026-05-07 04:41 | -28.82073 | 153.61174 | 1055 ft | 113 kts | 260° |
| 2026-05-07 04:41 | -28.82286 | 153.60270 | 896 ft | 125 kts | 256° |
| 2026-05-07 04:41 | -28.82527 | 153.59292 | 639 ft | 124 kts | 254° |
| 2026-05-07 04:41 | -28.82770 | 153.58336 | 427 ft | 125 kts | 257° |
| 2026-05-07 04:42 | -28.82999 | 153.57393 | 160 ft | 122 kts | 255° |
| 2026-05-07 04:42 | -28.83221 | 153.56528 | 17 ft | 92 kts | 251° |
| 2026-05-07 04:42 | -28.83334 | 153.56089 | 17 ft | 28 kts | 253° |
| 2026-05-07 04:42 | -28.83383 | 153.55905 | 16 ft | 23 kts | 253° |
| 2026-05-07 04:43 | -28.83429 | 153.55734 | 15 ft | 23 kts | 253° |
| 2026-05-07 04:43 | -28.83475 | 153.55657 | 15 ft | 10 kts | 187° |
| 2026-05-07 04:43 | -28.83547 | 153.55675 | 15 ft | 11 kts | 163° |
| 2026-05-07 04:43 | -28.83618 | 153.55687 | 15 ft | 8 kts | 207° |
| 2026-05-07 04:44 | -28.83650 | 153.55618 | 15 ft | 13 kts | 254° |
| 2026-05-07 04:44 | -28.83686 | 153.55572 | 17 ft | 7 kts | 198° |
| 2026-05-07 04:44 | -28.83715 | 153.55563 | 17 ft | 0 kts | 196° |